Wes Sellars — WDF9302 — position and weather

sailwx.info

Track history (hours):
 
Tides and Currents Weather Stations Pressure Air Temp Water Temp Dewpoint Dewpoint Depression Visibility Wind Speed Wind Dir Waves Ship Positions

Wes Sellars

Owner: Florida Marine, LLC, Mandeville, LA. More information available from US FCC via Universal Licensing System and Coast Guard Vessel Documentation Center.

Last reported at 2017-Jan-21 18:30 UTC. Time now 2017-Jan-21 19:33 UTC.
Position N 29°46' W 095°06'.

Length 27 m.

Type: Towing. MMSI: 367503760.

Date/timePositionNaut miles runAvg speedWind from/ knotsBaromVisibWave heightAir tempDewpointWater temp
2017-Jan-21 18:30N 29°46' W 095°06'0 0.0
2017-Jan-21 17:18N 29°46' W 095°06'0 0.0
2017-Jan-21 16:29N 29°46' W 095°06'0 0.0
2017-Jan-21 15:10N 29°46' W 095°06'0 0.0
2017-Jan-20 23:19N 29°46' W 095°06'0 0.0
2017-Jan-19 22:22N 29°46' W 095°06'0 0.0
2017-Jan-19 21:33N 29°46' W 095°06'0 0.0
2017-Jan-19 20:22N 29°46' W 095°06'0 0.2
2017-Jan-19 19:33N 29°46' W 095°06'2 2.3
2017-Jan-19 18:33N 29°47' W 095°04'2 1.7
2017-Jan-19 17:33N 29°46' W 095°05'5 5.5
2017-Jan-19 16:33N 29°42' W 095°00'7 7.2
2017-Jan-19 15:33N 29°36' W 094°56'7 7.4
2017-Jan-19 14:34N 29°29' W 094°52'69 2.3
2017-Jan-18 09:05N 30°03' W 093°43'3 5.6
2017-Jan-18 08:33N 30°04' W 093°39'5 5.4
2017-Jan-18 07:33N 30°04' W 093°33'6 5.5
2017-Jan-18 06:33N 30°04' W 093°27'5 5.1
2017-Jan-18 05:33N 30°04' W 093°21'4 4.1
2017-Jan-18 04:33N 30°08' W 093°20'0 0.5
2017-Jan-18 03:33N 30°08' W 093°19'0 0.1
2017-Jan-18 02:33N 30°08' W 093°19'0 0.0
2017-Jan-18 01:33N 30°08' W 093°19'0 0.0
2017-Jan-18 00:33N 30°08' W 093°19'0 0.0
2017-Jan-17 23:33N 30°08' W 093°19'0 0.0
2017-Jan-17 22:33N 30°08' W 093°19'0 0.0
2017-Jan-17 21:33N 30°08' W 093°19'0 0.0
2017-Jan-17 20:33N 30°08' W 093°19'0 0.0
2017-Jan-17 19:33N 30°08' W 093°19'0 0.0
2017-Jan-17 18:33N 30°08' W 093°19'0 0.0
2017-Jan-17 17:33N 30°08' W 093°19'0 0.0
2017-Jan-17 16:33N 30°08' W 093°19'0 0.0
2017-Jan-17 15:33N 30°08' W 093°19'0 0.0
2017-Jan-17 14:33N 30°08' W 093°19'0 0.0
2017-Jan-17 13:33N 30°08' W 093°19'0 0.0
2017-Jan-17 12:33N 30°08' W 093°19'0 0.0
2017-Jan-17 11:33N 30°08' W 093°19'0 0.0
2017-Jan-17 10:33N 30°08' W 093°19'0 0.0
2017-Jan-17 09:33N 30°08' W 093°19'0 0.0
2017-Jan-17 08:34N 30°08' W 093°19'0 0.0
2017-Jan-17 07:33N 30°08' W 093°19'0 0.3
2017-Jan-17 06:33N 30°08' W 093°20'2 1.6
2017-Jan-17 05:33N 30°06' W 093°20'4 3.8
2017-Jan-17 04:33N 30°04' W 093°23'0 0.3
2017-Jan-17 03:33N 30°04' W 093°22'4 4.1
2017-Jan-17 02:33N 30°04' W 093°27'6 5.8
2017-Jan-17 01:33N 30°04' W 093°34'5 4.6
2017-Jan-17 00:31N 30°04' W 093°39'72 2.4
2017-Jan-15 18:31N 29°24' W 094°49'7 7.7
2017-Jan-15 17:33N 29°31' W 094°53'6 6.3
2017-Jan-15 16:33N 29°36' W 094°57'7 6.6
2017-Jan-15 15:33N 29°42' W 095°00'6 5.9
2017-Jan-15 14:33N 29°46' W 095°05'1 1.3
2017-Jan-15 13:33N 29°45' W 095°06'0 0.0
2017-Jan-15 12:33N 29°45' W 095°06'0 0.0
2017-Jan-15 11:33N 29°45' W 095°06'0 0.0
2017-Jan-15 10:33N 29°45' W 095°06'0 0.0
2017-Jan-15 09:33N 29°45' W 095°06'0 0.0
2017-Jan-15 08:33N 29°45' W 095°06'0 0.0
2017-Jan-15 07:33N 29°45' W 095°06'0 0.0
2017-Jan-15 06:27N 29°45' W 095°06'0 0.0
2017-Jan-15 05:33N 29°45' W 095°06'0 0.0
2017-Jan-15 04:29N 29°45' W 095°06'0 0.0
2017-Jan-15 03:32N 29°45' W 095°06'0 0.0
2017-Jan-15 02:33N 29°45' W 095°06'0 0.0
2017-Jan-15 01:33N 29°45' W 095°06'0 0.0
2017-Jan-15 00:33N 29°45' W 095°06'0 0.0
2017-Jan-14 23:33N 29°45' W 095°06'0 0.0
2017-Jan-14 22:33N 29°45' W 095°06'0 0.0
2017-Jan-14 21:33N 29°45' W 095°06'0 0.0
2017-Jan-14 20:33N 29°45' W 095°06'0 0.0
2017-Jan-14 19:33N 29°45' W 095°06'0 0.0
2017-Jan-14 18:33N 29°45' W 095°06'0 0.0
2017-Jan-14 17:33N 29°45' W 095°06'0 0.0
2017-Jan-14 16:33N 29°45' W 095°06'0 0.0
2017-Jan-14 15:33N 29°45' W 095°06'0 0.0
2017-Jan-14 14:33N 29°45' W 095°06'0 0.0
2017-Jan-14 13:33N 29°45' W 095°06'0 0.0
2017-Jan-14 12:17N 29°45' W 095°06'0 0.0
2017-Jan-14 11:30N 29°45' W 095°06'0 0.0
2017-Jan-14 09:33N 29°45' W 095°06'0 0.0
2017-Jan-14 08:33N 29°45' W 095°06'0 0.0
2017-Jan-14 07:16N 29°45' W 095°06'0 0.0
2017-Jan-14 06:33N 29°45' W 095°06'0 0.0
2017-Jan-14 05:32N 29°45' W 095°06'0 0.0
2017-Jan-14 04:33N 29°45' W 095°06'0 0.0
2017-Jan-14 03:32N 29°45' W 095°06'0 0.0
2017-Jan-13 23:33N 29°45' W 095°06'0 0.0
2017-Jan-13 22:33N 29°45' W 095°06'0 0.0
2017-Jan-13 21:33N 29°45' W 095°06'0 0.0
2017-Jan-13 20:33N 29°45' W 095°06'0 0.0
2017-Jan-13 19:33N 29°45' W 095°06'0 0.1
2017-Jan-13 18:33N 29°45' W 095°06'3 2.8
2017-Jan-13 17:33N 29°44' W 095°10'2 1.5
2017-Jan-13 16:04N 29°44' W 095°12'0 0.0
2017-Jan-11 19:21N 29°44' W 095°12'2 2.5
2017-Jan-11 18:33N 29°45' W 095°10'  
Track history (hours):
 
Tides and Currents Weather Stations Pressure Air Temp Water Temp Dewpoint Dewpoint Depression Visibility Wind Speed Wind Dir Waves Ship Positions

Wes Sellars

Owner: Florida Marine, LLC, Mandeville, LA. More information available from US FCC via Universal Licensing System and Coast Guard Vessel Documentation Center.

Last reported at 2017-Jan-21 18:30 UTC. Time now 2017-Jan-21 19:33 UTC.
Position N 29°46' W 095°06'.

Length 27 m.

Type: Towing. MMSI: 367503760.

Date/timePositionNaut miles runAvg speedWind from/ knotsBaromVisibWave heightAir tempDewpointWater temp
2017-Jan-21 18:30N 29°46' W 095°06'0 0.0
2017-Jan-21 17:18N 29°46' W 095°06'0 0.0
2017-Jan-21 16:29N 29°46' W 095°06'0 0.0
2017-Jan-21 15:10N 29°46' W 095°06'0 0.0
2017-Jan-20 23:19N 29°46' W 095°06'0 0.0
2017-Jan-19 22:22N 29°46' W 095°06'0 0.0
2017-Jan-19 21:33N 29°46' W 095°06'0 0.0
2017-Jan-19 20:22N 29°46' W 095°06'0 0.2
2017-Jan-19 19:33N 29°46' W 095°06'2 2.3
2017-Jan-19 18:33N 29°47' W 095°04'2 1.7
2017-Jan-19 17:33N 29°46' W 095°05'5 5.5
2017-Jan-19 16:33N 29°42' W 095°00'7 7.2
2017-Jan-19 15:33N 29°36' W 094°56'7 7.4
2017-Jan-19 14:34N 29°29' W 094°52'69 2.3
2017-Jan-18 09:05N 30°03' W 093°43'3 5.6
2017-Jan-18 08:33N 30°04' W 093°39'5 5.4
2017-Jan-18 07:33N 30°04' W 093°33'6 5.5
2017-Jan-18 06:33N 30°04' W 093°27'5 5.1
2017-Jan-18 05:33N 30°04' W 093°21'4 4.1
2017-Jan-18 04:33N 30°08' W 093°20'0 0.5
2017-Jan-18 03:33N 30°08' W 093°19'0 0.1
2017-Jan-18 02:33N 30°08' W 093°19'0 0.0
2017-Jan-18 01:33N 30°08' W 093°19'0 0.0
2017-Jan-18 00:33N 30°08' W 093°19'0 0.0
2017-Jan-17 23:33N 30°08' W 093°19'0 0.0
2017-Jan-17 22:33N 30°08' W 093°19'0 0.0
2017-Jan-17 21:33N 30°08' W 093°19'0 0.0
2017-Jan-17 20:33N 30°08' W 093°19'0 0.0
2017-Jan-17 19:33N 30°08' W 093°19'0 0.0
2017-Jan-17 18:33N 30°08' W 093°19'0 0.0
2017-Jan-17 17:33N 30°08' W 093°19'0 0.0
2017-Jan-17 16:33N 30°08' W 093°19'0 0.0
2017-Jan-17 15:33N 30°08' W 093°19'0 0.0
2017-Jan-17 14:33N 30°08' W 093°19'0 0.0
2017-Jan-17 13:33N 30°08' W 093°19'0 0.0
2017-Jan-17 12:33N 30°08' W 093°19'0 0.0
2017-Jan-17 11:33N 30°08' W 093°19'0 0.0
2017-Jan-17 10:33N 30°08' W 093°19'0 0.0
2017-Jan-17 09:33N 30°08' W 093°19'0 0.0
2017-Jan-17 08:34N 30°08' W 093°19'0 0.0
2017-Jan-17 07:33N 30°08' W 093°19'0 0.3
2017-Jan-17 06:33N 30°08' W 093°20'2 1.6
2017-Jan-17 05:33N 30°06' W 093°20'4 3.8
2017-Jan-17 04:33N 30°04' W 093°23'0 0.3
2017-Jan-17 03:33N 30°04' W 093°22'4 4.1
2017-Jan-17 02:33N 30°04' W 093°27'6 5.8
2017-Jan-17 01:33N 30°04' W 093°34'5 4.6
2017-Jan-17 00:31N 30°04' W 093°39'72 2.4
2017-Jan-15 18:31N 29°24' W 094°49'7 7.7
2017-Jan-15 17:33N 29°31' W 094°53'6 6.3
2017-Jan-15 16:33N 29°36' W 094°57'7 6.6
2017-Jan-15 15:33N 29°42' W 095°00'6 5.9
2017-Jan-15 14:33N 29°46' W 095°05'1 1.3
2017-Jan-15 13:33N 29°45' W 095°06'0 0.0
2017-Jan-15 12:33N 29°45' W 095°06'0 0.0
2017-Jan-15 11:33N 29°45' W 095°06'0 0.0
2017-Jan-15 10:33N 29°45' W 095°06'0 0.0
2017-Jan-15 09:33N 29°45' W 095°06'0 0.0
2017-Jan-15 08:33N 29°45' W 095°06'0 0.0
2017-Jan-15 07:33N 29°45' W 095°06'0 0.0
2017-Jan-15 06:27N 29°45' W 095°06'0 0.0
2017-Jan-15 05:33N 29°45' W 095°06'0 0.0
2017-Jan-15 04:29N 29°45' W 095°06'0 0.0
2017-Jan-15 03:32N 29°45' W 095°06'0 0.0
2017-Jan-15 02:33N 29°45' W 095°06'0 0.0
2017-Jan-15 01:33N 29°45' W 095°06'0 0.0
2017-Jan-15 00:33N 29°45' W 095°06'0 0.0
2017-Jan-14 23:33N 29°45' W 095°06'0 0.0
2017-Jan-14 22:33N 29°45' W 095°06'0 0.0
2017-Jan-14 21:33N 29°45' W 095°06'0 0.0
2017-Jan-14 20:33N 29°45' W 095°06'0 0.0
2017-Jan-14 19:33N 29°45' W 095°06'0 0.0
2017-Jan-14 18:33N 29°45' W 095°06'0 0.0
2017-Jan-14 17:33N 29°45' W 095°06'0 0.0
2017-Jan-14 16:33N 29°45' W 095°06'0 0.0
2017-Jan-14 15:33N 29°45' W 095°06'0 0.0
2017-Jan-14 14:33N 29°45' W 095°06'0 0.0
2017-Jan-14 13:33N 29°45' W 095°06'0 0.0
2017-Jan-14 12:17N 29°45' W 095°06'0 0.0
2017-Jan-14 11:30N 29°45' W 095°06'0 0.0
2017-Jan-14 09:33N 29°45' W 095°06'0 0.0
2017-Jan-14 08:33N 29°45' W 095°06'0 0.0
2017-Jan-14 07:16N 29°45' W 095°06'0 0.0
2017-Jan-14 06:33N 29°45' W 095°06'0 0.0
2017-Jan-14 05:32N 29°45' W 095°06'0 0.0
2017-Jan-14 04:33N 29°45' W 095°06'0 0.0
2017-Jan-14 03:32N 29°45' W 095°06'0 0.0
2017-Jan-13 23:33N 29°45' W 095°06'0 0.0
2017-Jan-13 22:33N 29°45' W 095°06'0 0.0
2017-Jan-13 21:33N 29°45' W 095°06'0 0.0
2017-Jan-13 20:33N 29°45' W 095°06'0 0.0
2017-Jan-13 19:33N 29°45' W 095°06'0 0.1
2017-Jan-13 18:33N 29°45' W 095°06'3 2.8
2017-Jan-13 17:33N 29°44' W 095°10'2 1.5
2017-Jan-13 16:04N 29°44' W 095°12'0 0.0
2017-Jan-11 19:21N 29°44' W 095°12'2 2.5
2017-Jan-11 18:33N 29°45' W 095°10'  

Dump ship's entire track history